createdAt,value
2023-01-02T00:00:06.268Z,1.70
2023-01-02T00:02:32.719Z,1.48
2023-01-02T00:04:59.189Z,2.00
2023-01-02T00:07:25.543Z,1.55
2023-01-02T00:09:51.869Z,1.77
2023-01-02T00:12:18.315Z,2.33
2023-01-02T00:14:44.683Z,1.80
2023-01-02T00:17:11.031Z,1.63
2023-01-02T00:19:37.384Z,1.60
2023-01-02T00:22:03.723Z,1.77
2023-01-02T00:24:30.079Z,1.70
2023-01-02T00:26:56.436Z,1.60
2023-01-02T00:29:22.797Z,1.80
2023-01-02T00:31:49.173Z,1.80
2023-01-02T00:34:15.729Z,1.98
2023-01-02T00:36:42.071Z,2.00
2023-01-02T00:39:08.457Z,2.00
2023-01-02T00:41:34.807Z,2.00
2023-01-02T00:44:01.266Z,1.90
2023-01-02T00:46:27.732Z,1.60
2023-01-02T00:48:54.117Z,1.47
2023-01-02T00:51:20.560Z,1.83
2023-01-02T00:53:46.913Z,1.67
2023-01-02T00:56:13.251Z,1.90
2023-01-02T00:58:39.623Z,1.42
2023-01-02T01:01:06.111Z,2.00
2023-01-02T01:03:32.829Z,1.58
2023-01-02T01:05:59.189Z,2.00
2023-01-02T01:08:25.589Z,1.88
2023-01-02T01:10:51.974Z,1.80
2023-01-02T01:13:18.324Z,1.70
2023-01-02T01:15:44.737Z,1.80
2023-01-02T01:18:11.110Z,1.50
2023-01-02T01:20:39.121Z,1.90
2023-01-02T01:23:05.524Z,1.48
2023-01-02T01:25:31.868Z,1.30
2023-01-02T01:27:58.225Z,1.73
2023-01-02T01:30:24.579Z,1.40
2023-01-02T01:32:50.932Z,1.40
2023-01-02T01:35:17.275Z,1.25
2023-01-02T01:37:43.638Z,1.30
2023-01-02T01:40:10.292Z,1.67
2023-01-02T01:42:36.787Z,1.48
2023-01-02T01:45:04.140Z,1.50
2023-01-02T01:47:48.901Z,1.60
2023-01-02T01:50:35.515Z,1.30
2023-01-02T01:53:13.894Z,2.25
2023-01-02T01:55:52.930Z,1.65
2023-01-02T01:58:24.737Z,1.90
2023-01-02T02:00:51.821Z,1.27
2023-01-02T02:03:24.688Z,1.20
2023-01-02T02:05:51.190Z,1.35
2023-01-02T02:08:27.910Z,1.65
2023-01-02T02:10:57.221Z,1.40
2023-01-02T02:13:23.708Z,1.23
2023-01-02T02:16:08.756Z,1.83
2023-01-02T02:19:24.441Z,1.30
2023-01-02T02:22:12.297Z,1.30
2023-01-02T02:25:24.041Z,1.30
2023-01-02T02:28:27.632Z,1.42
2023-01-02T02:31:09.279Z,1.40
2023-01-02T02:33:47.971Z,2.17
2023-01-02T02:36:26.722Z,1.48
2023-01-02T02:39:17.224Z,1.10
2023-01-02T02:42:14.483Z,1.10
2023-01-02T02:45:04.759Z,1.70
2023-01-02T02:47:41.129Z,1.23
2023-01-02T02:50:17.022Z,1.50
2023-01-02T02:52:49.906Z,1.60
2023-01-02T02:55:24.290Z,1.83
2023-01-02T02:57:51.673Z,1.70
2023-01-02T03:00:22.310Z,1.50
2023-01-02T03:02:49.088Z,1.27
2023-01-02T03:05:37.242Z,1.20
2023-01-02T03:08:11.417Z,1.33
2023-01-02T03:10:56.458Z,1.90
2023-01-02T03:13:42.174Z,1.60
2023-01-02T03:16:17.923Z,1.52
2023-01-02T03:18:55.850Z,1.30
2023-01-02T03:21:40.936Z,1.60
2023-01-02T03:24:10.976Z,1.60
2023-01-02T03:26:42.332Z,1.60
2023-01-02T03:29:21.021Z,1.73
2023-01-02T03:31:53.956Z,2.00
2023-01-02T03:34:25.368Z,1.15
2023-01-02T03:36:58.163Z,1.30
2023-01-02T03:39:29.080Z,1.42
2023-01-02T03:41:59.104Z,1.85
2023-01-02T03:44:34.599Z,1.30
2023-01-02T03:47:32.159Z,1.70
2023-01-02T03:50:05.208Z,1.40
2023-01-02T03:52:31.705Z,1.48
2023-01-02T03:55:00.251Z,1.33
2023-01-02T03:58:00.259Z,1.55
2023-01-02T04:00:36.629Z,1.60
2023-01-02T04:03:38.910Z,2.17
2023-01-02T04:06:15.630Z,1.30
2023-01-02T04:08:47.938Z,1.50
2023-01-02T04:11:18.069Z,1.67
2023-01-02T04:13:50.570Z,1.17
2023-01-02T04:16:22.025Z,1.40
2023-01-02T04:18:54.851Z,1.30
2023-01-02T04:21:25.135Z,1.30
2023-01-02T04:23:59.321Z,1.17
2023-01-02T04:26:32.279Z,1.20
2023-01-02T04:28:59.752Z,1.10
2023-01-02T04:31:34.968Z,1.63
2023-01-02T04:34:03.418Z,3.55
2023-01-02T04:36:29.873Z,1.95
2023-01-02T04:38:56.232Z,1.60
2023-01-02T04:41:28.549Z,1.70
2023-01-02T04:43:56.358Z,1.30
2023-01-02T04:46:24.529Z,1.20
2023-01-02T04:48:51.024Z,2.20
2023-01-02T04:51:17.611Z,2.85
2023-01-02T04:53:46.941Z,2.80
2023-01-02T04:56:13.359Z,2.05
2023-01-02T04:58:41.623Z,2.80
2023-01-02T05:01:09.374Z,2.03
2023-01-02T05:03:39.482Z,2.50
2023-01-02T05:06:06.536Z,2.47
2023-01-02T05:08:32.887Z,3.05
2023-01-02T05:11:08.811Z,3.15
2023-01-02T05:13:35.148Z,2.45
2023-01-02T05:16:01.660Z,1.33
2023-01-02T05:18:29.169Z,1.70
2023-01-02T05:21:06.509Z,1.13
2023-01-02T05:23:50.970Z,1.55
2023-01-02T05:26:17.860Z,1.40
2023-01-02T05:28:44.641Z,1.05
2023-01-02T05:31:12.020Z,1.00
2023-01-02T05:33:38.529Z,1.15
2023-01-02T05:36:08.732Z,1.30
2023-01-02T05:38:36.431Z,1.73
2023-01-02T05:41:07.570Z,2.65
2023-01-02T05:43:35.804Z,1.10
2023-01-02T05:46:15.414Z,1.65
2023-01-02T05:48:42.299Z,1.40
2023-01-02T05:51:10.642Z,1.35
2023-01-02T05:53:37.813Z,1.10
2023-01-02T05:56:15.483Z,1.90
2023-01-02T05:58:46.725Z,1.48
2023-01-02T06:01:19.180Z,1.33
2023-01-02T06:03:59.067Z,1.80
2023-01-02T06:06:30.504Z,1.50
2023-01-02T06:08:58.785Z,1.50
2023-01-02T06:11:25.296Z,1.48
2023-01-02T06:13:52.503Z,1.20
2023-01-02T06:16:18.891Z,0.95
2023-01-02T06:18:45.349Z,1.30
2023-01-02T06:21:14.539Z,1.37
2023-01-02T06:23:42.090Z,1.63
2023-01-02T06:26:19.326Z,1.67
2023-01-02T06:28:48.707Z,1.30
2023-01-02T06:31:16.891Z,1.45
2023-01-02T06:33:43.732Z,1.73
2023-01-02T06:36:12.926Z,1.50
2023-01-02T06:38:39.505Z,1.30
2023-01-02T06:41:07.675Z,1.77
2023-01-02T06:43:35.344Z,1.55
2023-01-02T06:46:04.248Z,1.90
2023-01-02T06:48:34.418Z,1.85
2023-01-02T06:51:04.093Z,1.50
2023-01-02T06:53:32.656Z,1.40
2023-01-02T06:55:59.117Z,1.00
2023-01-02T06:58:29.460Z,1.30
2023-01-02T07:00:55.922Z,1.23
2023-01-02T07:03:22.364Z,1.40
2023-01-02T07:05:48.725Z,1.52
2023-01-02T07:08:15.098Z,1.50
2023-01-02T07:10:41.452Z,1.20
2023-01-02T07:13:07.845Z,1.17
2023-01-02T07:15:34.211Z,1.50
2023-01-02T07:18:00.579Z,1.45
2023-01-02T07:20:27.054Z,1.58
2023-01-02T07:22:54.518Z,1.43
2023-01-02T07:25:22.035Z,1.35
2023-01-02T07:27:48.428Z,1.50
2023-01-02T07:30:14.953Z,1.30
2023-01-02T07:32:41.398Z,1.60
2023-01-02T07:35:08.395Z,1.60
2023-01-02T07:37:34.764Z,1.52
2023-01-02T07:40:01.252Z,1.33
2023-01-02T07:42:28.069Z,1.40
2023-01-02T07:44:54.408Z,1.35
2023-01-02T07:47:20.838Z,1.27
2023-01-02T07:49:47.193Z,1.70
2023-01-02T07:52:13.578Z,1.73
2023-01-02T07:54:39.998Z,1.33
2023-01-02T07:57:06.345Z,1.77
2023-01-02T07:59:32.757Z,1.63
2023-01-02T08:01:59.222Z,2.28
2023-01-02T08:04:25.692Z,1.83
2023-01-02T08:06:52.153Z,1.88
2023-01-02T08:09:18.569Z,1.67
2023-01-02T08:11:44.951Z,1.63
2023-01-02T08:14:11.310Z,1.33
2023-01-02T08:16:37.681Z,1.65
2023-01-02T08:19:04.068Z,1.60
2023-01-02T08:21:30.477Z,1.52
2023-01-02T08:23:56.838Z,1.30
2023-01-02T08:26:23.965Z,1.55
2023-01-02T08:28:50.328Z,1.45
2023-01-02T08:31:20.821Z,1.38
2023-01-02T08:33:47.252Z,1.50
2023-01-02T08:36:14.807Z,1.33
2023-01-02T08:38:41.652Z,1.58
2023-01-02T08:41:08.602Z,1.50
2023-01-02T08:43:36.155Z,1.45
2023-01-02T08:46:07.260Z,1.70
2023-01-02T08:48:34.749Z,1.63
2023-01-02T08:51:01.876Z,1.98
2023-01-02T08:53:28.224Z,2.00
2023-01-02T08:55:54.623Z,1.60
2023-01-02T08:58:21.151Z,1.30
2023-01-02T09:00:47.496Z,1.70
2023-01-02T09:03:13.892Z,1.88
2023-01-02T09:05:40.286Z,1.35
2023-01-02T09:08:06.641Z,1.80
2023-01-02T09:10:33.005Z,1.52
2023-01-02T09:12:59.390Z,1.77
2023-01-02T09:15:25.830Z,1.55
2023-01-02T09:17:52.245Z,1.67
2023-01-02T09:20:18.605Z,2.03
2023-01-02T09:22:44.995Z,1.42
2023-01-02T09:25:11.361Z,1.70
2023-01-02T09:27:37.707Z,2.17
2023-01-02T09:30:04.492Z,1.60
2023-01-02T09:32:30.835Z,1.80
2023-01-02T09:34:57.221Z,1.70
2023-01-02T09:37:23.559Z,2.03
2023-01-02T09:39:50.385Z,1.75
2023-01-02T09:42:17.132Z,2.22
2023-01-02T09:44:49.849Z,1.77
2023-01-02T09:47:24.155Z,1.60
2023-01-02T09:49:56.641Z,1.77
2023-01-02T09:52:27.099Z,1.58
2023-01-02T09:54:53.699Z,2.42
2023-01-02T09:57:29.504Z,1.75
2023-01-02T10:00:18.476Z,2.55
2023-01-02T10:03:07.383Z,1.90
2023-01-02T10:06:09.552Z,1.88
2023-01-02T10:08:47.232Z,2.75
2023-01-02T10:11:33.963Z,2.00
2023-01-02T10:14:24.078Z,2.33
2023-01-02T10:16:56.104Z,3.70
2023-01-02T10:19:41.880Z,1.70
2023-01-02T10:22:12.297Z,1.98
2023-01-02T10:24:51.928Z,1.67
2023-01-02T10:27:24.046Z,1.75
2023-01-02T10:30:29.291Z,2.73
2023-01-02T10:33:05.301Z,1.88
2023-01-02T10:35:48.032Z,1.83
2023-01-02T10:38:17.049Z,2.00
2023-01-02T10:40:46.452Z,1.75
2023-01-02T10:43:14.752Z,2.03
2023-01-02T10:45:42.595Z,1.70
2023-01-02T10:48:12.877Z,2.05
2023-01-02T10:50:50.250Z,1.80
2023-01-02T10:53:33.306Z,1.88
2023-01-02T10:56:25.829Z,1.70
2023-01-02T10:58:53.083Z,1.85
2023-01-02T11:01:21.553Z,1.55
2023-01-02T11:03:53.845Z,1.88
2023-01-02T11:06:30.161Z,2.53
2023-01-02T11:09:12.836Z,2.07
2023-01-02T11:11:49.206Z,1.95
2023-01-02T11:14:15.776Z,1.70
2023-01-02T11:16:42.291Z,1.88
2023-01-02T11:19:20.415Z,2.00
2023-01-02T11:21:49.062Z,1.70
2023-01-02T11:24:25.779Z,2.00
2023-01-02T11:26:53.239Z,1.85
2023-01-02T11:29:32.568Z,1.77
2023-01-02T11:32:02.045Z,2.00
2023-01-02T11:34:37.981Z,2.03
2023-01-02T11:37:25.319Z,2.45
2023-01-02T11:40:06.813Z,1.92
2023-01-02T11:43:00.970Z,2.03
2023-01-02T11:45:27.980Z,1.80
2023-01-02T11:48:00.428Z,1.90
2023-01-02T11:50:33.813Z,2.20
2023-01-02T11:53:20.286Z,1.98
2023-01-02T11:55:51.595Z,2.20
2023-01-02T11:58:47.206Z,2.05
2023-01-02T12:01:13.541Z,2.27
2023-01-02T12:03:40.472Z,2.08
2023-01-02T12:06:15.690Z,2.22
2023-01-02T12:09:00.721Z,1.70
2023-01-02T12:12:01.845Z,1.80
2023-01-02T12:14:40.508Z,1.70
2023-01-02T12:17:20.284Z,1.80
2023-01-02T12:19:52.846Z,1.80
2023-01-02T12:22:49.048Z,2.10
2023-01-02T12:25:41.601Z,2.00
2023-01-02T12:28:37.215Z,1.43
2023-01-02T12:31:41.111Z,1.60
2023-01-02T12:34:27.168Z,1.92
2023-01-02T12:37:01.325Z,1.70
2023-01-02T12:40:11.960Z,2.35
2023-01-02T12:42:59.794Z,2.00
2023-01-02T12:45:36.095Z,1.77
2023-01-02T12:48:21.226Z,2.15
2023-01-02T12:51:02.772Z,2.15
2023-01-02T12:54:18.624Z,2.03
2023-01-02T12:57:07.784Z,2.57
2023-01-02T12:59:49.362Z,2.20
2023-01-02T13:02:34.196Z,2.70
2023-01-02T13:05:07.334Z,2.70
2023-01-02T13:07:40.209Z,3.20
2023-01-02T13:10:07.239Z,2.97
2023-01-02T13:12:35.710Z,2.80
2023-01-02T13:15:09.683Z,2.90
2023-01-02T13:17:51.226Z,3.60
2023-01-02T13:20:42.862Z,3.97
2023-01-02T13:23:35.573Z,4.00
2023-01-02T13:26:12.862Z,4.45
2023-01-02T13:28:43.098Z,4.20
2023-01-02T13:31:44.897Z,4.10
2023-01-02T13:34:05.399Z,4.15
2023-01-02T13:37:04.591Z,4.50
2023-01-02T13:39:46.773Z,4.68
2023-01-02T13:42:53.913Z,4.45
2023-01-02T13:45:25.485Z,3.80
2023-01-02T13:47:58.028Z,4.07
2023-01-02T13:50:34.275Z,4.10
2023-01-02T13:53:09.714Z,4.07
2023-01-02T13:55:42.307Z,3.78
2023-01-02T13:58:18.014Z,3.90
2023-01-02T14:00:53.929Z,2.72
2023-01-02T14:03:24.276Z,2.17
2023-01-02T14:06:00.407Z,2.00
2023-01-02T14:08:35.656Z,1.75
2023-01-02T14:11:10.169Z,1.15
2023-01-02T14:13:46.227Z,1.63
2023-01-02T14:16:34.325Z,1.37
2023-01-02T14:19:12.683Z,1.10
2023-01-02T14:21:53.550Z,0.80
2023-01-02T14:24:29.919Z,1.10
2023-01-02T14:27:00.889Z,1.33
2023-01-02T14:29:29.314Z,1.43
2023-01-02T14:32:22.170Z,1.30
2023-01-02T14:34:53.086Z,0.88
2023-01-02T14:37:29.724Z,1.30
2023-01-02T14:39:56.111Z,0.90
2023-01-02T14:42:51.974Z,0.80
2023-01-02T14:45:21.043Z,0.88
2023-01-02T14:48:00.543Z,0.90
2023-01-02T14:50:30.668Z,0.93
2023-01-02T14:53:10.025Z,0.80
2023-01-02T14:55:42.242Z,0.70
2023-01-02T14:58:24.721Z,1.10
2023-01-02T15:00:51.556Z,0.70
2023-01-02T15:03:29.945Z,0.70
2023-01-02T15:06:12.504Z,0.70
2023-01-02T15:08:46.551Z,0.70
2023-01-02T15:11:40.643Z,0.70
2023-01-02T15:14:12.967Z,0.90
2023-01-02T15:16:50.071Z,0.60
2023-01-02T15:19:25.171Z,0.88
2023-01-02T15:21:51.581Z,0.80
2023-01-02T15:24:21.256Z,0.70
2023-01-02T15:26:47.700Z,0.50
2023-01-02T15:29:23.624Z,0.38
2023-01-02T15:31:58.622Z,0.55
2023-01-02T15:34:30.133Z,0.60
2023-01-02T15:37:02.072Z,0.50
2023-01-02T15:39:33.900Z,0.57
2023-01-02T15:42:04.157Z,0.40
2023-01-02T15:44:54.469Z,0.70
2023-01-02T15:47:27.646Z,0.80
2023-01-02T15:49:56.254Z,0.70
2023-01-02T15:52:30.208Z,0.50
2023-01-02T15:54:57.388Z,0.70
2023-01-02T15:57:28.259Z,0.60
2023-01-02T15:59:55.104Z,0.70
2023-01-02T16:02:44.805Z,0.90
2023-01-02T16:05:18.798Z,1.00
2023-01-02T16:07:50.830Z,0.60
2023-01-02T16:10:20.727Z,0.50
2023-01-02T16:12:56.562Z,0.50
2023-01-02T16:15:29.510Z,0.40
2023-01-02T16:17:56.786Z,0.60
2023-01-02T16:20:25.335Z,0.40
2023-01-02T16:23:07.739Z,0.60
2023-01-02T16:25:36.753Z,0.50
2023-01-02T16:28:34.810Z,0.65
2023-01-02T16:31:16.106Z,0.52
2023-01-02T16:33:43.973Z,0.60
2023-01-02T16:36:13.036Z,0.60
2023-01-02T16:39:00.392Z,0.60
2023-01-02T16:41:35.059Z,0.63
2023-01-02T16:44:12.304Z,0.60
2023-01-02T16:46:39.653Z,0.68
2023-01-02T16:49:06.448Z,0.60
2023-01-02T16:51:33.356Z,0.50
2023-01-02T16:53:59.723Z,0.80
2023-01-02T16:56:26.128Z,0.85
2023-01-02T16:58:52.592Z,1.48
2023-01-02T17:01:22.551Z,1.60
2023-01-02T17:03:49.077Z,1.30
2023-01-02T17:06:18.161Z,0.80
2023-01-02T17:08:45.081Z,0.65
2023-01-02T17:11:16.059Z,0.75
2023-01-02T17:13:42.569Z,0.70
2023-01-02T17:16:09.065Z,0.73
2023-01-02T17:18:35.598Z,0.70
2023-01-02T17:21:02.011Z,0.60
2023-01-02T17:23:28.391Z,0.60
2023-01-02T17:25:54.764Z,0.80
2023-01-02T17:28:21.138Z,0.90
2023-01-02T17:30:51.616Z,0.70
2023-01-02T17:33:18.056Z,1.30
2023-01-02T17:35:48.763Z,1.92
2023-01-02T17:38:15.419Z,0.90
2023-01-02T17:40:41.820Z,2.83
2023-01-02T17:43:08.172Z,1.60
2023-01-02T17:45:34.556Z,1.30
2023-01-02T17:48:07.882Z,1.00
2023-01-02T17:50:36.713Z,0.80
2023-01-02T17:53:03.074Z,0.70
2023-01-02T17:55:29.438Z,0.70
2023-01-02T17:57:55.961Z,0.90
2023-01-02T18:00:23.368Z,1.20
2023-01-02T18:02:51.388Z,0.98
2023-01-02T18:05:17.892Z,2.00
2023-01-02T18:07:44.218Z,1.83
2023-01-02T18:10:13.536Z,1.70
2023-01-02T18:12:43.836Z,1.33
2023-01-02T18:15:12.835Z,1.23
2023-01-02T18:17:39.286Z,1.53
2023-01-02T18:20:10.488Z,4.22
2023-01-02T18:22:38.215Z,2.17
2023-01-02T18:25:15.868Z,1.88
2023-01-02T18:27:42.206Z,1.98
2023-01-02T18:30:14.760Z,1.70
2023-01-02T18:32:42.727Z,1.48
2023-01-02T18:35:55.557Z,1.70
2023-01-02T18:38:24.264Z,1.60
2023-01-02T18:40:53.068Z,2.17
2023-01-02T18:43:37.468Z,2.20
2023-01-02T18:46:22.287Z,1.13
2023-01-02T18:48:48.844Z,2.78
2023-01-02T18:51:23.144Z,1.80
2023-01-02T18:53:52.163Z,1.20
2023-01-02T18:56:23.818Z,1.33
2023-01-02T18:59:00.976Z,1.33
2023-01-02T19:01:34.847Z,1.60
2023-01-02T19:04:22.485Z,1.20
2023-01-02T19:06:55.798Z,1.35
2023-01-02T19:09:28.104Z,1.27
2023-01-02T19:12:37.944Z,2.42
2023-01-02T19:15:31.173Z,2.03
2023-01-02T19:18:01.441Z,1.05
2023-01-02T19:20:27.787Z,1.20
2023-01-02T19:22:54.178Z,1.00
2023-01-02T19:25:23.751Z,1.30
2023-01-02T19:27:53.920Z,0.80
2023-01-02T19:30:30.891Z,1.20
2023-01-02T19:32:58.027Z,2.70
2023-01-02T19:35:24.315Z,1.60
2023-01-02T19:37:50.721Z,0.88
2023-01-02T19:40:20.769Z,1.00
2023-01-02T19:42:51.791Z,0.82
2023-01-02T19:45:23.880Z,0.90
2023-01-02T19:47:51.320Z,1.10
2023-01-02T19:50:24.113Z,1.40
2023-01-02T19:52:50.567Z,1.10
2023-01-02T19:55:18.306Z,0.70
2023-01-02T19:57:46.597Z,0.80
2023-01-02T20:00:15.360Z,0.87
2023-01-02T20:02:45.203Z,1.85
2023-01-02T20:05:14.823Z,1.10
2023-01-02T20:07:44.821Z,1.10
2023-01-02T20:10:12.065Z,1.20
2023-01-02T20:12:41.556Z,0.80
2023-01-02T20:15:28.706Z,1.27
2023-01-02T20:17:55.643Z,0.95
2023-01-02T20:20:24.938Z,0.90
2023-01-02T20:22:52.161Z,1.20
2023-01-02T20:25:23.683Z,1.43
2023-01-02T20:27:50.801Z,1.40
2023-01-02T20:30:23.702Z,1.42
2023-01-02T20:32:50.852Z,1.20
2023-01-02T20:35:17.338Z,1.00
2023-01-02T20:37:43.788Z,1.07
2023-01-02T20:40:10.595Z,1.40
2023-01-02T20:42:37.043Z,1.95
2023-01-02T20:45:04.756Z,1.70
2023-01-02T20:47:31.266Z,1.92
2023-01-02T20:49:57.613Z,1.40
2023-01-02T20:52:23.966Z,2.33
2023-01-02T20:57:21.630Z,1.88
2023-01-02T20:59:48.043Z,1.73
2023-01-02T21:02:14.594Z,2.20
2023-01-02T21:04:41.080Z,1.23
2023-01-02T21:07:07.493Z,1.48
2023-01-02T21:09:33.936Z,1.17
2023-01-02T21:12:00.273Z,1.20
2023-01-02T21:14:27.174Z,1.00
2023-01-02T21:16:54.736Z,0.90
2023-01-02T21:19:21.235Z,1.00
2023-01-02T21:21:47.925Z,0.95
2023-01-02T21:24:14.308Z,0.70
2023-01-02T21:26:40.653Z,1.00
2023-01-02T21:29:07.031Z,0.98
2023-01-02T21:31:33.395Z,0.85
2023-01-02T21:33:59.770Z,1.70
2023-01-02T21:36:26.112Z,1.48
2023-01-02T21:38:52.471Z,1.13
2023-01-02T21:41:37.150Z,1.15
2023-01-02T21:44:03.597Z,0.70
2023-01-02T21:46:29.985Z,0.82
2023-01-02T21:48:56.455Z,0.55
2023-01-02T21:51:26.403Z,0.80
2023-01-02T21:53:55.516Z,0.50
2023-01-02T21:56:21.943Z,0.60
2023-01-02T21:58:48.347Z,1.00
2023-01-02T22:01:14.776Z,1.20
2023-01-02T22:03:41.279Z,1.30
2023-01-02T22:06:07.740Z,1.48
2023-01-02T22:08:34.099Z,1.40
2023-01-02T22:11:20.406Z,1.33
2023-01-02T22:13:46.763Z,1.55
2023-01-02T22:16:13.864Z,1.30
2023-01-02T22:18:40.249Z,1.15
2023-01-02T22:21:06.628Z,0.80
2023-01-02T22:23:33.211Z,0.80
2023-01-02T22:25:59.615Z,0.90
2023-01-02T22:28:25.986Z,1.00
2023-01-02T22:30:52.693Z,1.10
2023-01-02T22:33:19.162Z,0.90
2023-01-02T22:35:45.615Z,0.70
2023-01-02T22:38:11.990Z,0.90
2023-01-02T22:40:38.383Z,0.60
2023-01-02T22:43:05.909Z,0.90
2023-01-02T22:45:47.731Z,0.80
2023-01-02T22:48:19.348Z,0.90
2023-01-02T22:50:47.017Z,0.75
2023-01-02T22:53:26.418Z,0.80
2023-01-02T22:55:53.167Z,0.75
2023-01-02T22:58:20.078Z,0.70
2023-01-02T23:00:47.898Z,0.50
2023-01-02T23:03:16.086Z,0.80
2023-01-02T23:05:43.176Z,2.50
2023-01-02T23:08:09.717Z,2.20
2023-01-02T23:10:36.184Z,1.80
2023-01-02T23:13:02.818Z,1.67
2023-01-02T23:15:29.396Z,1.50
2023-01-02T23:18:14.154Z,0.60
2023-01-02T23:20:40.530Z,0.90
2023-01-02T23:23:07.480Z,0.80
2023-01-02T23:25:33.880Z,0.60
2023-01-02T23:28:00.221Z,0.52
2023-01-02T23:30:26.593Z,0.60
2023-01-02T23:32:53.032Z,0.70
2023-01-02T23:35:19.364Z,0.60
2023-01-02T23:37:45.724Z,0.80
2023-01-02T23:40:12.480Z,1.00
2023-01-02T23:42:38.877Z,1.10
2023-01-02T23:45:05.568Z,1.00
2023-01-02T23:47:32.044Z,1.30
2023-01-02T23:49:58.409Z,1.20
2023-01-02T23:52:24.772Z,0.90
2023-01-02T23:54:51.152Z,0.80
2023-01-02T23:57:17.518Z,0.82
2023-01-02T23:59:43.997Z,0.60
